Time;durP1;ratioP1;P1;durP2;ratioP2;P2;SDS_P1;SDS_P2;PMS_P1;PMS_P2;Temp;Humidity;BMP_temperature;BMP_pressure;BME280_temperature;BME280_humidity;BME280_pressure;Samples;Min_cycle;Max_cycle;Signal;HPM_P1;HPM_P2
2022/11/11 00:01:16;;;;;;;14.00;7.85;;;12.00;99.90;;;;;;4939900;28;20767;-72
2022/11/11 00:03:42;;;;;;;13.73;7.55;;;12.10;99.90;;;;;;4931993;29;20075;-70
2022/11/11 00:06:11;;;;;;;16.88;8.15;;;12.00;99.90;;;;;;4934830;28;20054;-71
2022/11/11 00:08:37;;;;;;;15.48;8.55;;;12.00;99.90;;;;;;4938405;29;20653;-71
2022/11/11 00:11:09;;;;;;;18.27;8.80;;;12.00;99.90;;;;;;4937081;29;20047;-71
2022/11/11 00:13:37;;;;;;;16.30;8.98;;;12.00;99.90;;;;;;4936637;29;20054;-67
2022/11/11 00:16:08;;;;;;;22.85;10.95;;;12.00;99.90;;;;;;4940051;28;20138;-71
2022/11/11 00:26:56;;;;;;;23.23;10.95;;;11.90;99.90;;;;;;4938258;29;20046;-72
2022/11/11 00:29:21;;;;;;;18.08;10.35;;;11.90;99.90;;;;;;4941807;29;20058;-72
2022/11/11 00:34:31;;;;;;;21.08;11.43;;;11.90;99.90;;;;;;4942196;29;20421;-68
2022/11/11 00:36:57;;;;;;;18.90;10.23;;;11.90;99.90;;;;;;4925569;29;20103;-67
2022/11/11 00:39:23;;;;;;;25.48;11.85;;;11.80;99.90;;;;;;4924629;29;20162;-72
2022/11/11 00:41:49;;;;;;;21.77;9.45;;;11.90;99.90;;;;;;4938714;29;20044;-68
2022/11/11 00:44:15;;;;;;;18.75;9.40;;;11.90;99.90;;;;;;4922815;29;20067;-72
2022/11/11 00:52:09;;;;;;;21.50;9.50;;;11.80;99.90;;;;;;4932809;29;20054;-72
2022/11/11 00:54:35;;;;;;;20.20;9.38;;;11.80;99.90;;;;;;4939411;29;20486;-72
2022/11/11 00:57:01;;;;;;;16.45;9.40;;;11.90;99.90;;;;;;4931697;29;20191;-71
2022/11/11 00:59:26;;;;;;;22.20;10.50;;;11.90;99.90;;;;;;4921953;29;20047;-69
2022/11/11 01:01:52;;;;;;;16.63;8.90;;;11.80;99.90;;;;;;4913592;29;20051;-72
2022/11/11 01:04:18;;;;;;;19.60;9.45;;;11.80;99.90;;;;;;4939615;28;20054;-72
2022/11/11 01:06:43;;;;;;;23.20;9.20;;;11.80;99.90;;;;;;4934767;29;20047;-71
2022/11/11 01:09:09;;;;;;;22.17;9.98;;;11.90;99.90;;;;;;4934664;28;20098;-73
2022/11/11 01:11:35;;;;;;;15.82;8.82;;;11.90;99.90;;;;;;4929018;29;20106;-69
2022/11/11 01:14:01;;;;;;;20.95;9.50;;;11.90;99.90;;;;;;4936460;29;20047;-72
2022/11/11 01:16:27;;;;;;;18.60;8.77;;;11.90;99.90;;;;;;4939098;29;20067;-72
2022/11/11 01:18:53;;;;;;;22.52;9.73;;;11.90;99.90;;;;;;4932432;29;20055;-73
2022/11/11 01:21:22;;;;;;;18.83;9.40;;;11.90;99.90;;;;;;4932671;29;20051;-69
2022/11/11 01:23:50;;;;;;;18.83;9.65;;;11.90;99.90;;;;;;4942492;29;20068;-72
2022/11/11 01:26:24;;;;;;;19.63;9.88;;;11.90;99.90;;;;;;4942029;28;20999;-72
2022/11/11 01:28:55;;;;;;;23.77;11.02;;;11.90;99.90;;;;;;4940505;28;20047;-72
2022/11/11 01:31:23;;;;;;;20.33;9.50;;;11.90;99.90;;;;;;4946431;28;20051;-72
2022/11/11 01:33:49;;;;;;;16.58;9.75;;;11.90;99.90;;;;;;4929799;29;20058;-69
2022/11/11 01:36:18;;;;;;;16.98;9.98;;;11.80;99.90;;;;;;4921126;29;20043;-72
2022/11/11 01:38:48;;;;;;;16.98;9.05;;;11.80;99.90;;;;;;4915638;29;20052;-69
2022/11/11 01:41:32;;;;;;;16.88;9.60;;;11.80;99.90;;;;;;4902540;28;20157;-68
2022/11/11 01:44:11;;;;;;;18.42;9.32;;;11.80;99.90;;;;;;4929478;29;20051;-70
2022/11/11 01:46:46;;;;;;;21.67;10.20;;;11.80;99.90;;;;;;4930347;29;20039;-68
2022/11/11 01:49:23;;;;;;;17.92;9.35;;;11.80;99.90;;;;;;4937946;29;20051;-71
2022/11/11 01:51:58;;;;;;;16.92;9.60;;;11.80;99.90;;;;;;4940998;29;20079;-72
2022/11/11 01:54:36;;;;;;;17.05;9.98;;;11.80;99.90;;;;;;4938419;29;20138;-69
2022/11/11 01:57:28;;;;;;;17.55;9.30;;;11.80;99.90;;;;;;4932378;29;20051;-72
2022/11/11 02:00:16;;;;;;;22.50;10.07;;;11.80;99.90;;;;;;4908364;29;20113;-72
2022/11/11 02:02:57;;;;;;;20.42;10.65;;;11.80;99.90;;;;;;4923248;29;20494;-71
2022/11/11 02:05:42;;;;;;;21.60;9.88;;;11.80;99.90;;;;;;4938385;28;20051;-70
2022/11/11 02:08:30;;;;;;;21.40;10.30;;;11.80;99.90;;;;;;4917116;29;20040;-72
2022/11/11 02:11:08;;;;;;;24.23;10.45;;;11.80;99.90;;;;;;4937804;29;20055;-72
2022/11/11 02:16:23;;;;;;;18.02;9.98;;;11.80;99.90;;;;;;4915147;29;20066;-72
2022/11/11 02:18:49;;;;;;;16.50;10.07;;;11.80;99.90;;;;;;4947778;28;20047;-68
2022/11/11 02:21:32;;;;;;;24.08;9.95;;;11.80;99.90;;;;;;4934657;28;20521;-71
2022/11/11 02:24:10;;;;;;;19.75;10.20;;;11.80;99.90;;;;;;4940264;29;20047;-71
2022/11/11 02:26:37;;;;;;;21.10;10.95;;;11.80;99.90;;;;;;4929982;29;20047;-72
2022/11/11 02:29:09;;;;;;;21.63;10.77;;;11.80;99.90;;;;;;4934903;28;20059;-72
2022/11/11 02:31:35;;;;;;;22.48;10.52;;;11.80;99.90;;;;;;4934736;29;20162;-71
2022/11/11 02:34:01;;;;;;;17.85;10.20;;;11.80;99.90;;;;;;4932327;29;20380;-68
2022/11/11 02:36:27;;;;;;;20.60;10.95;;;11.80;99.90;;;;;;4929380;29;20060;-71
2022/11/11 02:38:53;;;;;;;21.63;10.45;;;11.80;99.90;;;;;;4917125;29;20056;-72
2022/11/11 02:44:03;;;;;;;23.67;11.07;;;11.80;99.90;;;;;;4931817;29;20601;-69
2022/11/11 02:46:29;;;;;;;25.08;12.15;;;11.80;99.90;;;;;;4934170;29;20277;-69
2022/11/11 02:48:55;;;;;;;24.35;11.18;;;11.80;99.90;;;;;;4934786;29;20048;-70
2022/11/11 02:51:21;;;;;;;20.77;11.93;;;11.80;99.90;;;;;;4933155;29;20170;-72
2022/11/11 02:53:47;;;;;;;27.20;12.70;;;11.80;99.90;;;;;;4925735;29;20051;-71
2022/11/11 02:57:05;;;;;;;19.38;11.57;;;11.80;99.90;;;;;;4933093;29;20458;-72
2022/11/11 02:58:58;;;;;;;20.42;11.80;;;11.80;99.90;;;;;;4919605;29;20176;-72
2022/11/11 03:01:24;;;;;;;21.45;11.77;;;11.80;99.90;;;;;;4929121;29;20101;-67
2022/11/11 03:03:49;;;;;;;24.88;12.95;;;11.80;99.90;;;;;;4931604;28;20075;-71
2022/11/11 03:06:15;;;;;;;24.95;13.18;;;11.70;99.90;;;;;;4920238;29;20062;-72
2022/11/11 03:08:41;;;;;;;25.02;13.18;;;11.70;99.90;;;;;;4936772;29;20042;-70
2022/11/11 03:11:07;;;;;;;25.23;14.30;;;11.70;99.90;;;;;;4922161;29;20047;-74
2022/11/11 03:13:33;;;;;;;24.95;15.63;;;11.70;99.90;;;;;;4937097;29;20181;-68
2022/11/11 03:15:58;;;;;;;25.70;15.23;;;11.70;99.90;;;;;;4904946;29;20086;-72
2022/11/11 03:18:24;;;;;;;21.95;14.20;;;11.60;99.90;;;;;;4885680;29;20048;-70
2022/11/11 03:21:05;;;;;;;23.67;14.73;;;11.60;99.90;;;;;;4900753;29;20055;-72
2022/11/11 03:23:31;;;;;;;23.70;15.15;;;11.60;99.90;;;;;;4885963;29;20470;-71
2022/11/11 03:25:56;;;;;;;22.58;15.18;;;11.60;99.90;;;;;;4902024;29;20051;-69
2022/11/11 03:28:25;;;;;;;24.88;16.13;;;11.60;99.90;;;;;;4888550;29;20052;-72
2022/11/11 03:30:52;;;;;;;29.52;16.05;;;11.50;99.90;;;;;;4896946;29;20085;-72
2022/11/11 03:33:18;;;;;;;27.98;16.38;;;11.50;99.90;;;;;;4898348;29;20061;-72
2022/11/11 03:35:46;;;;;;;26.45;16.88;;;11.50;99.90;;;;;;4896540;29;20040;-72
2022/11/11 03:38:22;;;;;;;27.75;17.27;;;11.50;99.90;;;;;;4895704;29;20130;-72
2022/11/11 03:40:51;;;;;;;33.85;18.02;;;11.40;99.90;;;;;;4907439;29;20491;-72
2022/11/11 03:43:18;;;;;;;30.30;18.48;;;11.50;99.90;;;;;;4902386;29;20040;-70
2022/11/11 03:45:45;;;;;;;33.13;17.58;;;11.40;99.90;;;;;;4897004;29;20043;-68
2022/11/11 03:48:11;;;;;;;31.45;18.95;;;11.40;99.90;;;;;;4896495;29;20048;-72
2022/11/11 03:50:37;;;;;;;31.63;19.55;;;11.40;99.90;;;;;;4906453;29;20106;-68
2022/11/11 03:53:04;;;;;;;28.98;18.08;;;11.40;99.90;;;;;;4907265;29;20048;-69
2022/11/11 03:55:30;;;;;;;33.25;20.45;;;11.40;99.90;;;;;;4890666;29;20048;-72
2022/11/11 03:57:56;;;;;;;34.20;20.33;;;11.40;99.90;;;;;;4902886;29;20043;-70
2022/11/11 04:00:24;;;;;;;30.58;20.33;;;11.40;99.90;;;;;;4899597;29;24029;-71
2022/11/11 04:11:11;;;;;;;28.67;19.67;;;11.40;99.90;;;;;;4906610;29;20744;-69
2022/11/11 04:16:43;;;;;;;30.27;19.67;;;11.30;99.90;;;;;;4885104;29;20083;-68
2022/11/11 04:22:04;;;;;;;37.42;20.85;;;11.30;99.90;;;;;;4848482;28;20056;-72
2022/11/11 04:27:17;;;;;;;31.10;20.05;;;11.30;99.90;;;;;;4934390;28;20058;-69
2022/11/11 04:29:45;;;;;;;34.20;20.92;;;11.30;99.90;;;;;;4936171;29;20047;-72
2022/11/11 04:35:00;;;;;;;36.00;22.33;;;11.30;99.90;;;;;;4935386;29;20064;-72
2022/11/11 04:37:29;;;;;;;34.33;22.30;;;11.30;99.90;;;;;;4929197;29;20054;-71
2022/11/11 04:42:39;;;;;;;40.75;23.48;;;11.30;99.90;;;;;;4932786;29;20051;-71
2022/11/11 04:48:12;;;;;;;39.13;23.40;;;11.30;99.90;;;;;;4888979;29;20044;-68
2022/11/11 04:50:40;;;;;;;39.35;24.17;;;11.30;99.90;;;;;;4934661;28;20054;-71
2022/11/11 04:53:09;;;;;;;34.65;21.63;;;11.30;99.90;;;;;;4947064;28;20066;-71
2022/11/11 04:58:22;;;;;;;35.35;21.65;;;11.30;99.90;;;;;;4922232;29;20055;-72
2022/11/11 05:00:48;;;;;;;34.38;22.67;;;11.30;99.90;;;;;;4925785;29;20066;-69
2022/11/11 05:03:15;;;;;;;33.55;22.60;;;11.30;99.90;;;;;;4901126;29;20429;-72
2022/11/11 05:11:10;;;;;;;34.10;21.73;;;11.20;99.90;;;;;;4941816;29;20048;-67
2022/11/11 05:22:06;;;;;;;35.65;22.85;;;11.20;99.90;;;;;;4931594;28;20566;-72
2022/11/11 05:27:21;;;;;;;36.47;22.77;;;11.20;99.90;;;;;;4919866;28;20127;-71
2022/11/11 05:29:47;;;;;;;42.40;22.95;;;11.10;99.90;;;;;;4929985;29;20070;-67
2022/11/11 05:32:17;;;;;;;35.13;21.75;;;11.20;99.90;;;;;;4922534;29;20487;-72
2022/11/11 05:34:44;;;;;;;36.33;22.08;;;11.10;99.90;;;;;;4903857;29;20050;-72
2022/11/11 05:37:10;;;;;;;36.03;23.27;;;11.10;99.90;;;;;;4940025;29;20526;-70
2022/11/11 05:39:36;;;;;;;33.30;22.00;;;11.10;99.90;;;;;;4929471;29;20264;-72
2022/11/11 05:42:02;;;;;;;37.58;22.65;;;11.10;99.90;;;;;;4932723;29;20047;-68
2022/11/11 05:44:28;;;;;;;41.63;23.30;;;11.10;99.90;;;;;;4932635;28;20406;-72
2022/11/11 05:46:54;;;;;;;34.05;22.95;;;11.10;99.90;;;;;;4904174;29;20048;-72
2022/11/11 05:49:20;;;;;;;44.88;24.15;;;11.10;99.90;;;;;;4927666;29;20177;-72
2022/11/11 05:51:46;;;;;;;33.83;22.33;;;11.10;99.90;;;;;;4924164;29;20051;-72
2022/11/11 05:54:13;;;;;;;36.80;22.23;;;11.10;99.90;;;;;;4913201;29;20047;-72
2022/11/11 05:56:39;;;;;;;34.95;22.02;;;11.00;99.90;;;;;;4929948;29;20052;-69
2022/11/11 05:59:06;;;;;;;32.00;22.23;;;11.00;99.90;;;;;;4939236;29;20055;-67
2022/11/11 06:01:32;;;;;;;34.08;22.65;;;11.00;99.90;;;;;;4923235;29;22088;-70
2022/11/11 06:03:58;;;;;;;36.47;23.70;;;10.90;99.90;;;;;;4937488;29;20051;-70
2022/11/11 06:06:24;;;;;;;38.90;22.75;;;10.90;99.90;;;;;;4930260;28;20066;-68
2022/11/11 06:08:50;;;;;;;37.83;22.92;;;10.80;99.90;;;;;;4936154;29;20106;-72
2022/11/11 06:11:16;;;;;;;35.35;21.88;;;10.80;99.90;;;;;;4929520;29;20087;-71
2022/11/11 06:13:42;;;;;;;35.88;22.30;;;10.80;99.90;;;;;;4934135;28;20486;-72
2022/11/11 06:16:08;;;;;;;39.03;21.02;;;10.80;99.90;;;;;;4931608;29;20047;-67
2022/11/11 06:18:33;;;;;;;37.70;22.35;;;10.80;99.90;;;;;;4932968;29;20036;-68
2022/11/11 06:20:59;;;;;;;37.60;22.00;;;10.70;99.90;;;;;;4930125;29;20054;-69
2022/11/11 06:23:27;;;;;;;43.13;23.08;;;10.70;99.90;;;;;;4936403;29;20074;-71
2022/11/11 06:28:42;;;;;;;34.95;22.38;;;10.80;99.90;;;;;;4928647;29;20076;-69
2022/11/11 06:31:09;;;;;;;37.60;22.52;;;10.90;99.90;;;;;;4928246;28;20054;-71
2022/11/11 06:33:36;;;;;;;38.92;22.20;;;10.90;99.90;;;;;;4918863;29;20052;-71
2022/11/11 06:36:03;;;;;;;34.22;20.25;;;11.00;99.90;;;;;;4931766;29;20051;-68
2022/11/11 06:38:28;;;;;;;39.40;20.55;;;11.00;99.90;;;;;;4940226;29;20124;-71
2022/11/11 06:40:54;;;;;;;41.38;23.05;;;11.10;99.90;;;;;;4913223;29;20129;-72
2022/11/11 06:43:20;;;;;;;35.97;21.70;;;11.10;99.90;;;;;;4928275;29;20046;-71
2022/11/11 06:45:50;;;;;;;32.60;20.65;;;11.10;99.90;;;;;;4930964;28;20058;-71
2022/11/11 06:48:16;;;;;;;38.30;22.13;;;11.10;99.90;;;;;;4927561;29;20087;-69
2022/11/11 06:50:41;;;;;;;38.55;23.83;;;11.20;99.90;;;;;;4935035;28;20110;-72
2022/11/11 06:53:10;;;;;;;35.92;22.05;;;11.20;99.90;;;;;;4925001;29;20051;-72
2022/11/11 06:55:36;;;;;;;35.40;22.80;;;11.20;99.90;;;;;;4945880;28;20055;-70
2022/11/11 06:58:18;;;;;;;38.97;22.80;;;11.20;99.90;;;;;;4932312;29;20405;-68
2022/11/11 07:00:45;;;;;;;41.60;22.73;;;11.20;99.90;;;;;;4916570;29;20043;-64
2022/11/11 07:03:14;;;;;;;35.35;22.08;;;11.20;99.90;;;;;;4908932;29;20078;-64
2022/11/11 07:05:40;;;;;;;41.08;23.52;;;11.20;99.90;;;;;;4931829;28;20099;-64
2022/11/11 07:08:09;;;;;;;42.60;23.58;;;11.20;99.90;;;;;;4931112;29;20438;-65
2022/11/11 07:10:37;;;;;;;36.08;22.08;;;11.20;99.90;;;;;;4937656;29;20055;-64
2022/11/11 07:13:04;;;;;;;39.45;23.52;;;11.20;99.90;;;;;;4931811;29;20059;-65
2022/11/11 07:15:30;;;;;;;38.15;23.17;;;11.20;99.90;;;;;;4921745;29;20087;-65
2022/11/11 07:17:56;;;;;;;42.45;23.77;;;11.20;99.90;;;;;;4901681;29;20047;-64
2022/11/11 07:20:22;;;;;;;34.97;24.02;;;11.20;99.90;;;;;;4900416;29;20059;-65
2022/11/11 07:22:48;;;;;;;37.90;24.05;;;11.20;99.90;;;;;;4901154;29;20047;-64
2022/11/11 07:25:14;;;;;;;37.75;24.20;;;11.20;99.90;;;;;;4902806;29;20047;-65
2022/11/11 07:27:41;;;;;;;37.65;22.55;;;11.20;99.90;;;;;;4903831;29;20052;-65
2022/11/11 07:30:08;;;;;;;37.17;23.27;;;11.20;99.90;;;;;;4915031;29;20044;-65
2022/11/11 07:32:35;;;;;;;38.10;23.67;;;11.20;99.90;;;;;;4893477;29;20042;-64
2022/11/11 07:35:01;;;;;;;38.33;24.00;;;11.20;99.90;;;;;;4908381;29;20052;-64
2022/11/11 07:37:27;;;;;;;39.20;23.98;;;11.20;99.90;;;;;;4911097;29;20066;-65
2022/11/11 07:39:53;;;;;;;38.47;23.98;;;11.20;99.90;;;;;;4903676;29;20052;-64
2022/11/11 07:42:19;;;;;;;42.35;24.88;;;11.20;99.90;;;;;;4899806;29;20086;-65
2022/11/11 07:44:45;;;;;;;38.38;24.30;;;11.20;99.90;;;;;;4896974;29;20126;-65
2022/11/11 07:47:11;;;;;;;37.08;23.73;;;11.20;99.90;;;;;;4903269;29;20055;-65
2022/11/11 07:49:37;;;;;;;44.95;23.55;;;11.20;99.90;;;;;;4902408;29;20056;-65
2022/11/11 07:52:03;;;;;;;37.42;23.17;;;11.20;99.90;;;;;;4903409;29;20074;-64
2022/11/11 07:54:29;;;;;;;43.60;23.58;;;11.20;99.90;;;;;;4916865;29;20767;-64
2022/11/11 07:56:54;;;;;;;39.15;23.33;;;11.30;99.90;;;;;;4893837;29;20047;-65
2022/11/11 07:59:20;;;;;;;40.47;23.98;;;11.30;99.90;;;;;;4903653;29;20055;-65
2022/11/11 08:01:46;;;;;;;41.00;23.63;;;11.30;99.90;;;;;;4887584;29;20055;-65
2022/11/11 08:04:11;;;;;;;33.17;22.38;;;11.30;99.90;;;;;;4905598;29;20640;-64
2022/11/11 08:06:37;;;;;;;36.45;22.40;;;11.30;99.90;;;;;;4900877;29;20469;-64
2022/11/11 08:09:03;;;;;;;41.08;22.42;;;11.30;99.90;;;;;;4903585;29;20110;-64
2022/11/11 08:14:13;;;;;;;37.28;22.50;;;11.40;99.90;;;;;;4890334;29;20495;-65
2022/11/11 08:16:39;;;;;;;38.85;23.17;;;11.40;99.90;;;;;;4939453;28;20086;-65
2022/11/11 08:19:04;;;;;;;36.53;22.60;;;11.30;99.90;;;;;;4940953;29;20044;-65
2022/11/11 08:21:30;;;;;;;37.85;22.80;;;11.30;99.90;;;;;;4936807;28;20058;-65
2022/11/11 08:23:56;;;;;;;34.17;22.45;;;11.30;99.90;;;;;;4935690;29;20047;-65
2022/11/11 08:26:22;;;;;;;39.60;22.50;;;11.30;99.90;;;;;;4937417;29;20059;-65
2022/11/11 08:28:50;;;;;;;37.72;22.23;;;11.40;99.90;;;;;;4935004;28;20082;-64
2022/11/11 08:31:16;;;;;;;36.53;22.92;;;11.40;99.90;;;;;;4936334;29;20059;-65
2022/11/11 08:33:41;;;;;;;37.25;23.02;;;11.40;99.90;;;;;;4912372;29;20051;-64
2022/11/11 08:36:10;;;;;;;34.00;21.38;;;11.40;99.90;;;;;;4941760;28;20062;-65
2022/11/11 08:38:37;;;;;;;31.20;21.60;;;11.40;99.90;;;;;;4928986;29;20474;-65
2022/11/11 08:41:05;;;;;;;36.78;22.70;;;11.40;99.90;;;;;;4935651;29;20398;-64
2022/11/11 08:43:32;;;;;;;37.90;22.70;;;11.40;99.90;;;;;;4910093;29;20095;-65
2022/11/11 08:45:59;;;;;;;33.67;22.13;;;11.40;99.90;;;;;;4942417;28;20050;-64
2022/11/11 08:48:25;;;;;;;34.38;22.30;;;11.40;99.90;;;;;;4933286;28;20150;-65
2022/11/11 08:50:52;;;;;;;34.78;22.77;;;11.40;99.90;;;;;;4934547;29;20205;-64
2022/11/11 08:53:18;;;;;;;32.17;21.80;;;11.40;99.90;;;;;;4921750;29;20051;-64
2022/11/11 08:55:44;;;;;;;34.05;22.35;;;11.40;99.90;;;;;;4935397;29;20051;-65
2022/11/11 08:58:11;;;;;;;34.83;23.02;;;11.40;99.90;;;;;;4923644;29;20039;-64
2022/11/11 09:00:37;;;;;;;36.90;22.20;;;11.40;99.90;;;;;;4936887;29;20122;-65
2022/11/11 09:03:05;;;;;;;37.00;22.20;;;11.40;99.90;;;;;;4918513;29;20494;-64
2022/11/11 09:05:32;;;;;;;40.20;22.23;;;11.40;99.90;;;;;;4936535;28;20406;-65
2022/11/11 09:08:05;;;;;;;37.50;21.92;;;11.40;99.90;;;;;;4931839;28;20050;-65
2022/11/11 09:10:32;;;;;;;36.17;22.77;;;11.40;99.90;;;;;;4919177;29;20055;-65
2022/11/11 09:12:58;;;;;;;38.10;22.50;;;11.40;99.90;;;;;;4929744;29;20426;-64
2022/11/11 09:15:25;;;;;;;34.17;22.95;;;11.40;99.90;;;;;;4933410;29;20278;-65
2022/11/11 09:17:51;;;;;;;36.45;22.77;;;11.40;99.90;;;;;;4936851;29;20051;-65
2022/11/11 09:20:18;;;;;;;38.70;22.23;;;11.40;99.90;;;;;;4948380;28;20083;-65
2022/11/11 09:22:44;;;;;;;35.30;21.70;;;11.40;99.90;;;;;;4932496;28;20043;-65
2022/11/11 09:25:10;;;;;;;35.03;22.42;;;11.40;99.90;;;;;;4933711;28;20078;-65
2022/11/11 09:27:36;;;;;;;33.33;21.13;;;11.40;99.90;;;;;;4932273;29;20196;-66
2022/11/11 09:30:03;;;;;;;34.03;22.13;;;11.40;99.90;;;;;;4932022;29;20462;-64
2022/11/11 09:32:28;;;;;;;34.88;21.65;;;11.50;99.90;;;;;;4898921;29;20562;-64
2022/11/11 09:34:54;;;;;;;32.90;21.17;;;11.40;99.90;;;;;;4938959;29;20062;-64
2022/11/11 09:37:21;;;;;;;38.15;21.60;;;11.50;99.90;;;;;;4951273;28;20071;-65
2022/11/11 09:39:46;;;;;;;38.17;21.08;;;11.40;99.90;;;;;;4934294;28;20502;-65
2022/11/11 09:42:30;;;;;;;35.33;21.27;;;11.40;99.90;;;;;;4918569;29;20057;-65
2022/11/11 09:45:14;;;;;;;35.15;21.50;;;11.40;99.90;;;;;;4933565;28;20079;-65
2022/11/11 09:48:04;;;;;;;34.90;21.50;;;11.40;99.90;;;;;;4926370;29;20411;-65
2022/11/11 09:50:34;;;;;;;34.42;20.90;;;11.40;99.90;;;;;;4931806;28;20463;-65
2022/11/11 09:53:21;;;;;;;32.35;20.85;;;11.40;99.90;;;;;;4932983;29;20059;-64
2022/11/11 09:55:55;;;;;;;32.15;21.05;;;11.40;99.90;;;;;;4935781;29;20052;-65
2022/11/11 09:58:25;;;;;;;35.88;21.05;;;11.30;99.90;;;;;;4943444;28;20044;-64
2022/11/11 10:01:03;;;;;;;35.80;21.27;;;11.40;99.90;;;;;;4947162;28;20495;-65
2022/11/11 10:03:32;;;;;;;39.28;21.45;;;11.40;99.90;;;;;;4940640;28;20110;-64
2022/11/11 10:06:21;;;;;;;35.53;20.95;;;11.40;99.90;;;;;;4932055;28;20126;-65
2022/11/11 10:09:05;;;;;;;33.42;20.77;;;11.40;99.90;;;;;;4933617;28;20055;-64
2022/11/11 10:12:05;;;;;;;34.65;20.75;;;11.30;99.90;;;;;;4929565;28;20078;-65
2022/11/11 10:14:35;;;;;;;38.47;21.08;;;11.30;99.90;;;;;;4932182;28;20058;-65
2022/11/11 10:17:39;;;;;;;32.47;20.38;;;11.30;99.90;;;;;;4931672;29;20069;-65
2022/11/11 10:20:19;;;;;;;34.67;21.67;;;11.30;99.90;;;;;;4939638;29;20071;-65
2022/11/11 10:22:50;;;;;;;34.63;20.38;;;11.30;99.90;;;;;;4918765;29;20150;-65
2022/11/11 10:25:24;;;;;;;35.22;20.20;;;11.30;99.90;;;;;;4912328;29;20533;-65
2022/11/11 10:27:53;;;;;;;33.03;20.60;;;11.30;99.90;;;;;;4932370;29;20069;-65
2022/11/11 10:30:26;;;;;;;34.28;19.67;;;11.30;99.90;;;;;;4930585;29;20134;-65
2022/11/11 10:33:17;;;;;;;33.75;21.40;;;11.30;99.90;;;;;;4947678;28;20506;-64
2022/11/11 10:35:44;;;;;;;32.28;19.80;;;11.30;99.90;;;;;;4933634;29;20055;-65
2022/11/11 10:38:09;;;;;;;34.97;21.13;;;11.30;99.90;;;;;;4916965;29;20114;-64
2022/11/11 10:41:10;;;;;;;33.83;21.15;;;11.30;99.90;;;;;;4930627;28;20059;-65
2022/11/11 10:43:36;;;;;;;37.15;20.70;;;11.30;99.90;;;;;;4918060;29;20470;-64
2022/11/11 10:46:05;;;;;;;28.13;20.17;;;11.40;99.90;;;;;;4912298;29;20046;-65
2022/11/11 10:49:01;;;;;;;30.73;20.70;;;11.40;99.90;;;;;;4910190;29;20055;-65
2022/11/11 10:51:36;;;;;;;32.60;20.73;;;11.40;99.90;;;;;;4930226;28;20055;-65
2022/11/11 10:54:18;;;;;;;30.30;19.95;;;11.40;99.90;;;;;;4932209;28;20051;-65
2022/11/11 10:56:46;;;;;;;31.92;19.33;;;11.40;99.90;;;;;;4930728;29;20047;-65
2022/11/11 10:59:23;;;;;;;33.33;20.58;;;11.40;99.90;;;;;;4920194;28;20048;-64
2022/11/11 11:01:56;;;;;;;29.80;19.88;;;11.40;99.90;;;;;;4924485;29;20050;-64
2022/11/11 11:04:32;;;;;;;29.83;19.15;;;11.40;99.90;;;;;;4916357;29;20039;-65
2022/11/11 11:07:00;;;;;;;30.25;19.40;;;11.40;99.90;;;;;;4934631;28;20375;-65
2022/11/11 11:09:34;;;;;;;31.38;19.08;;;11.50;99.90;;;;;;4929127;28;20161;-64
2022/11/11 11:12:11;;;;;;;28.52;18.73;;;11.50;99.90;;;;;;4913968;29;20062;-65
2022/11/11 11:14:46;;;;;;;29.88;18.92;;;11.50;99.90;;;;;;4924435;28;20051;-64
2022/11/11 11:17:52;;;;;;;30.08;18.08;;;11.50;99.90;;;;;;4931313;29;20155;-65
2022/11/11 11:20:19;;;;;;;30.77;18.70;;;11.50;99.90;;;;;;4889138;28;20051;-64
2022/11/11 11:22:50;;;;;;;28.35;18.55;;;11.50;99.90;;;;;;4947046;28;20954;-65
2022/11/11 11:25:17;;;;;;;27.52;18.92;;;11.60;99.90;;;;;;4938600;28;20517;-65
2022/11/11 11:27:43;;;;;;;26.83;17.85;;;11.60;99.90;;;;;;4930838;28;20407;-65
2022/11/11 11:30:19;;;;;;;31.85;17.50;;;11.60;99.90;;;;;;4935378;28;20557;-65
2022/11/11 11:32:59;;;;;;;30.88;18.02;;;11.60;99.90;;;;;;4913556;29;20894;-64
2022/11/11 11:35:32;;;;;;;26.23;17.98;;;11.60;99.90;;;;;;4934326;29;20047;-64
2022/11/11 11:37:58;;;;;;;26.00;18.63;;;11.60;99.90;;;;;;4910454;29;20051;-64
2022/11/11 11:40:24;;;;;;;28.60;18.13;;;11.60;99.90;;;;;;4933633;28;20391;-65
2022/11/11 11:42:50;;;;;;;28.15;18.08;;;11.70;99.90;;;;;;4935071;28;20074;-64
2022/11/11 11:45:27;;;;;;;27.33;17.52;;;11.70;99.90;;;;;;4922440;29;20119;-65
2022/11/11 11:48:24;;;;;;;25.08;17.10;;;11.70;99.90;;;;;;4939021;29;20103;-65
2022/11/11 11:51:00;;;;;;;25.02;17.02;;;11.70;99.90;;;;;;4930653;29;20058;-65
2022/11/11 11:53:44;;;;;;;25.15;16.85;;;11.70;99.90;;;;;;4929622;29;20171;-65
2022/11/11 11:56:38;;;;;;;24.92;16.30;;;11.70;99.90;;;;;;4930910;28;20051;-64
2022/11/11 11:59:20;;;;;;;28.80;17.92;;;11.70;99.90;;;;;;4947815;28;20549;-64
2022/11/11 12:01:53;;;;;;;25.90;17.05;;;11.70;99.90;;;;;;4946734;28;20512;-65
2022/11/11 12:04:57;;;;;;;24.63;16.52;;;11.70;99.90;;;;;;4940922;29;20059;-65
2022/11/11 12:07:42;;;;;;;27.30;16.98;;;11.70;99.90;;;;;;4863789;29;20115;-65
2022/11/11 12:10:28;;;;;;;27.02;17.90;;;11.70;99.90;;;;;;4894376;29;20056;-64
2022/11/11 12:13:32;;;;;;;23.60;16.63;;;11.80;99.90;;;;;;4926906;29;20075;-65
2022/11/11 12:16:10;;;;;;;24.85;16.85;;;11.80;99.90;;;;;;4928577;29;20086;-64
2022/11/11 12:19:16;;;;;;;26.33;15.05;;;11.80;99.90;;;;;;4938608;29;20079;-65
2022/11/11 12:21:54;;;;;;;21.83;16.42;;;11.80;99.90;;;;;;4935364;29;20130;-64
2022/11/11 12:24:45;;;;;;;26.05;16.20;;;11.70;99.90;;;;;;4922544;29;20043;-64
2022/11/11 12:27:42;;;;;;;25.27;16.05;;;11.70;99.90;;;;;;4936343;29;20043;-64
2022/11/11 12:30:13;;;;;;;26.10;16.02;;;11.80;99.90;;;;;;4937411;29;20055;-65
2022/11/11 12:32:38;;;;;;;22.60;16.38;;;11.80;99.90;;;;;;4938123;29;20114;-65
2022/11/11 12:35:33;;;;;;;22.20;15.32;;;11.80;99.90;;;;;;4922347;29;20048;-65
2022/11/11 12:38:31;;;;;;;22.70;14.52;;;11.80;99.90;;;;;;4927885;29;20069;-64
2022/11/11 12:41:11;;;;;;;18.95;14.05;;;11.80;99.90;;;;;;4936993;29;20047;-64
2022/11/11 12:44:00;;;;;;;21.00;14.73;;;11.80;99.90;;;;;;4933889;29;20046;-64
2022/11/11 12:46:49;;;;;;;23.17;14.60;;;11.80;99.90;;;;;;4931235;29;20134;-65
2022/11/11 12:49:30;;;;;;;18.98;13.45;;;11.70;99.90;;;;;;4948318;28;20047;-65
2022/11/11 12:52:00;;;;;;;19.08;14.18;;;11.70;99.90;;;;;;4932732;28;20059;-64
2022/11/11 12:54:44;;;;;;;17.63;13.95;;;11.70;99.90;;;;;;4934964;29;20043;-65
2022/11/11 12:57:39;;;;;;;23.70;13.75;;;11.70;99.90;;;;;;4935926;29;20943;-65
2022/11/11 13:00:14;;;;;;;17.38;13.45;;;11.70;99.90;;;;;;4934009;29;20048;-65
2022/11/11 13:03:04;;;;;;;18.65;13.35;;;11.70;99.90;;;;;;4924328;29;20092;-64
2022/11/11 13:05:44;;;;;;;18.65;13.77;;;11.70;99.90;;;;;;4934931;28;20044;-65
2022/11/11 13:08:47;;;;;;;21.80;14.18;;;11.70;99.90;;;;;;4934956;28;20048;-65
2022/11/11 13:11:46;;;;;;;21.58;14.98;;;11.70;99.90;;;;;;4939903;29;20079;-64
2022/11/11 13:14:34;;;;;;;20.98;15.23;;;11.60;99.90;;;;;;4938843;29;20047;-65
2022/11/11 13:17:01;;;;;;;21.08;15.02;;;11.60;99.90;;;;;;4934054;29;20116;-65
2022/11/11 13:19:40;;;;;;;20.85;15.32;;;11.60;99.90;;;;;;4940139;29;20482;-65
2022/11/11 13:22:26;;;;;;;22.50;16.45;;;11.60;99.90;;;;;;4940043;29;20055;-65
2022/11/11 13:24:54;;;;;;;21.17;15.57;;;11.60;99.90;;;;;;4933669;29;20073;-65
2022/11/11 13:27:39;;;;;;;23.23;16.02;;;11.60;99.90;;;;;;4935538;28;20487;-64
2022/11/11 13:30:40;;;;;;;23.48;15.60;;;11.60;99.90;;;;;;4927519;29;20055;-65
2022/11/11 13:33:26;;;;;;;22.27;16.17;;;11.50;99.90;;;;;;4927261;28;20063;-68
2022/11/11 13:36:02;;;;;;;24.77;17.52;;;11.50;99.90;;;;;;4930250;29;20143;-67
2022/11/11 13:38:32;;;;;;;25.80;17.10;;;11.50;99.90;;;;;;4932306;29;20051;-67
2022/11/11 13:41:03;;;;;;;26.90;17.83;;;11.50;99.90;;;;;;4931673;29;20047;-67
2022/11/11 13:43:28;;;;;;;27.83;17.75;;;11.40;99.90;;;;;;4913933;29;23440;-67
2022/11/11 13:45:57;;;;;;;26.42;16.05;;;11.40;99.90;;;;;;4922875;29;20052;-68
2022/11/11 13:48:27;;;;;;;24.33;17.52;;;11.40;99.90;;;;;;4931455;29;20043;-67
2022/11/11 13:51:08;;;;;;;25.52;17.05;;;11.40;99.90;;;;;;4928965;28;20513;-68
2022/11/11 13:53:36;;;;;;;27.13;18.50;;;11.40;99.90;;;;;;4930561;29;20910;-66
2022/11/11 13:56:03;;;;;;;23.83;16.95;;;11.40;99.90;;;;;;4916227;29;20047;-67
2022/11/11 13:58:30;;;;;;;26.00;17.60;;;11.40;99.90;;;;;;4917793;29;20046;-67
2022/11/11 14:00:59;;;;;;;26.73;17.45;;;11.40;99.90;;;;;;4932838;29;20051;-67
2022/11/11 14:03:25;;;;;;;24.05;17.35;;;11.40;99.90;;;;;;4939243;29;20576;-67